sensor_id;sensor_type;location;lat;lon;timestamp;pressure;altitude;pressure_sealevel;temperature;humidity
52535;BME280;38443;53.164;5.802;2022-12-29T00:01:30;99757.00;;;7.77;100.00
52535;BME280;38443;53.164;5.802;2022-12-29T00:03:56;99749.91;;;7.78;100.00
52535;BME280;38443;53.164;5.802;2022-12-29T00:06:21;99764.06;;;7.80;100.00
52535;BME280;38443;53.164;5.802;2022-12-29T00:08:47;99760.41;;;7.83;100.00
52535;BME280;38443;53.164;5.802;2022-12-29T00:11:14;99758.72;;;7.80;100.00
52535;BME280;38443;53.164;5.802;2022-12-29T00:13:40;99756.06;;;7.80;100.00
52535;BME280;38443;53.164;5.802;2022-12-29T00:16:26;99759.47;;;7.84;100.00
52535;BME280;38443;53.164;5.802;2022-12-29T00:18:51;99741.53;;;7.89;100.00
52535;BME280;38443;53.164;5.802;2022-12-29T00:21:18;99744.78;;;7.97;100.00
52535;BME280;38443;53.164;5.802;2022-12-29T00:24:03;99752.59;;;8.02;100.00
52535;BME280;38443;53.164;5.802;2022-12-29T00:26:56;99729.38;;;8.05;100.00
52535;BME280;38443;53.164;5.802;2022-12-29T00:29:41;99746.09;;;8.10;100.00
52535;BME280;38443;53.164;5.802;2022-12-29T00:32:25;99748.53;;;8.16;100.00
52535;BME280;38443;53.164;5.802;2022-12-29T00:35:12;99746.75;;;8.15;100.00
52535;BME280;38443;53.164;5.802;2022-12-29T00:37:44;99736.91;;;8.17;100.00
52535;BME280;38443;53.164;5.802;2022-12-29T00:40:29;99718.25;;;8.17;100.00
52535;BME280;38443;53.164;5.802;2022-12-29T00:43:13;99736.06;;;8.17;100.00
52535;BME280;38443;53.164;5.802;2022-12-29T00:45:57;99743.19;;;8.16;100.00
52535;BME280;38443;53.164;5.802;2022-12-29T00:48:22;99729.91;;;8.15;100.00
52535;BME280;38443;53.164;5.802;2022-12-29T00:51:07;99741.56;;;8.12;100.00
52535;BME280;38443;53.164;5.802;2022-12-29T00:53:32;99720.25;;;8.12;100.00
52535;BME280;38443;53.164;5.802;2022-12-29T00:55:58;99728.09;;;8.15;100.00
52535;BME280;38443;53.164;5.802;2022-12-29T00:58:23;99735.28;;;8.13;100.00
52535;BME280;38443;53.164;5.802;2022-12-29T01:00:48;99706.78;;;8.15;100.00
52535;BME280;38443;53.164;5.802;2022-12-29T01:03:13;99723.72;;;8.14;100.00
52535;BME280;38443;53.164;5.802;2022-12-29T01:05:39;99712.19;;;8.14;100.00
52535;BME280;38443;53.164;5.802;2022-12-29T01:08:04;99722.09;;;8.10;100.00
52535;BME280;38443;53.164;5.802;2022-12-29T01:10:29;99722.88;;;8.14;100.00
52535;BME280;38443;53.164;5.802;2022-12-29T01:12:55;99708.66;;;8.13;100.00
52535;BME280;38443;53.164;5.802;2022-12-29T01:15:20;99705.94;;;8.15;100.00
52535;BME280;38443;53.164;5.802;2022-12-29T01:17:46;99705.28;;;8.08;100.00
52535;BME280;38443;53.164;5.802;2022-12-29T01:20:11;99698.06;;;8.12;100.00
52535;BME280;38443;53.164;5.802;2022-12-29T01:22:37;99687.31;;;8.13;100.00
52535;BME280;38443;53.164;5.802;2022-12-29T01:25:03;99696.25;;;8.12;100.00
52535;BME280;38443;53.164;5.802;2022-12-29T01:27:29;99679.50;;;8.09;100.00
52535;BME280;38443;53.164;5.802;2022-12-29T01:29:54;99702.72;;;8.05;100.00
52535;BME280;38443;53.164;5.802;2022-12-29T01:32:19;99686.78;;;8.04;100.00
52535;BME280;38443;53.164;5.802;2022-12-29T01:34:45;99682.50;;;7.99;100.00
52535;BME280;38443;53.164;5.802;2022-12-29T01:37:10;99678.94;;;8.01;100.00
52535;BME280;38443;53.164;5.802;2022-12-29T01:39:36;99679.97;;;7.96;100.00
52535;BME280;38443;53.164;5.802;2022-12-29T01:42:01;99679.84;;;7.99;100.00
52535;BME280;38443;53.164;5.802;2022-12-29T01:47:10;99693.47;;;7.92;100.00
52535;BME280;38443;53.164;5.802;2022-12-29T01:49:36;99677.63;;;7.87;100.00
52535;BME280;38443;53.164;5.802;2022-12-29T01:52:07;99675.09;;;7.84;100.00
52535;BME280;38443;53.164;5.802;2022-12-29T01:54:48;99680.34;;;7.86;100.00
52535;BME280;38443;53.164;5.802;2022-12-29T01:57:21;99669.81;;;7.83;100.00
52535;BME280;38443;53.164;5.802;2022-12-29T02:00:07;99664.59;;;7.79;100.00
52535;BME280;38443;53.164;5.802;2022-12-29T02:02:34;99670.00;;;7.78;100.00
52535;BME280;38443;53.164;5.802;2022-12-29T02:05:04;99683.47;;;7.73;100.00
52535;BME280;38443;53.164;5.802;2022-12-29T02:07:32;99685.22;;;7.74;100.00
52535;BME280;38443;53.164;5.802;2022-12-29T02:09:57;99690.72;;;7.70;100.00
52535;BME280;38443;53.164;5.802;2022-12-29T02:12:24;99659.69;;;7.69;100.00
52535;BME280;38443;53.164;5.802;2022-12-29T02:14:53;99690.78;;;7.68;100.00
52535;BME280;38443;53.164;5.802;2022-12-29T02:31:58;99651.31;;;7.54;100.00
52535;BME280;38443;53.164;5.802;2022-12-29T02:37:06;99652.25;;;7.53;100.00
52535;BME280;38443;53.164;5.802;2022-12-29T02:42:35;99655.13;;;7.47;100.00
52535;BME280;38443;53.164;5.802;2022-12-29T02:45:12;99646.38;;;7.44;100.00
52535;BME280;38443;53.164;5.802;2022-12-29T02:47:56;99655.47;;;7.38;100.00
52535;BME280;38443;53.164;5.802;2022-12-29T02:50:39;99667.06;;;7.35;100.00
52535;BME280;38443;53.164;5.802;2022-12-29T02:53:09;99660.06;;;7.33;100.00
52535;BME280;38443;53.164;5.802;2022-12-29T02:55:36;99658.41;;;7.30;100.00
52535;BME280;38443;53.164;5.802;2022-12-29T02:58:18;99654.19;;;7.23;100.00
52535;BME280;38443;53.164;5.802;2022-12-29T03:09:36;99656.31;;;7.13;100.00
52535;BME280;38443;53.164;5.802;2022-12-29T03:12:41;99646.47;;;7.15;100.00
52535;BME280;38443;53.164;5.802;2022-12-29T03:15:44;99644.78;;;7.13;100.00
52535;BME280;38443;53.164;5.802;2022-12-29T03:18:46;99635.22;;;7.07;100.00
52535;BME280;38443;53.164;5.802;2022-12-29T03:21:27;99641.44;;;7.08;100.00
52535;BME280;38443;53.164;5.802;2022-12-29T03:24:16;99641.38;;;7.09;100.00
52535;BME280;38443;53.164;5.802;2022-12-29T03:26:43;99636.03;;;7.09;100.00
52535;BME280;38443;53.164;5.802;2022-12-29T03:29:11;99648.31;;;7.13;100.00
52535;BME280;38443;53.164;5.802;2022-12-29T03:31:38;99645.59;;;7.15;100.00
52535;BME280;38443;53.164;5.802;2022-12-29T03:34:05;99650.94;;;7.15;100.00
52535;BME280;38443;53.164;5.802;2022-12-29T03:36:39;99649.25;;;7.12;100.00
52535;BME280;38443;53.164;5.802;2022-12-29T03:39:12;99650.38;;;7.05;100.00
52535;BME280;38443;53.164;5.802;2022-12-29T03:41:41;99655.78;;;7.04;100.00
52535;BME280;38443;53.164;5.802;2022-12-29T03:44:08;99642.59;;;6.99;100.00
52535;BME280;38443;53.164;5.802;2022-12-29T03:46:34;99647.16;;;6.95;100.00
52535;BME280;38443;53.164;5.802;2022-12-29T03:48:59;99648.09;;;6.94;100.00
52535;BME280;38443;53.164;5.802;2022-12-29T03:51:27;99650.78;;;6.93;100.00
52535;BME280;38443;53.164;5.802;2022-12-29T03:53:53;99644.81;;;6.86;100.00
52535;BME280;38443;53.164;5.802;2022-12-29T03:56:18;99652.81;;;6.86;100.00
52535;BME280;38443;53.164;5.802;2022-12-29T03:58:43;99645.88;;;6.81;100.00
52535;BME280;38443;53.164;5.802;2022-12-29T04:01:09;99648.47;;;6.84;100.00
52535;BME280;38443;53.164;5.802;2022-12-29T04:03:34;99645.03;;;6.80;100.00
52535;BME280;38443;53.164;5.802;2022-12-29T04:05:59;99651.97;;;6.84;100.00
52535;BME280;38443;53.164;5.802;2022-12-29T04:08:25;99650.19;;;6.85;100.00
52535;BME280;38443;53.164;5.802;2022-12-29T04:10:50;99649.94;;;6.92;100.00
52535;BME280;38443;53.164;5.802;2022-12-29T04:13:16;99652.81;;;6.86;100.00
52535;BME280;38443;53.164;5.802;2022-12-29T04:15:43;99663.44;;;6.86;100.00
52535;BME280;38443;53.164;5.802;2022-12-29T04:18:08;99653.69;;;6.85;100.00
52535;BME280;38443;53.164;5.802;2022-12-29T04:20:33;99645.03;;;6.80;100.00
52535;BME280;38443;53.164;5.802;2022-12-29T04:23:17;99651.13;;;6.84;100.00
52535;BME280;38443;53.164;5.802;2022-12-29T04:25:44;99655.72;;;6.78;100.00
52535;BME280;38443;53.164;5.802;2022-12-29T04:28:10;99657.47;;;6.79;100.00
52535;BME280;38443;53.164;5.802;2022-12-29T04:30:35;99660.22;;;6.76;100.00
52535;BME280;38443;53.164;5.802;2022-12-29T04:33:00;99652.88;;;6.83;100.00
52535;BME280;38443;53.164;5.802;2022-12-29T04:35:26;99644.91;;;6.83;100.00
52535;BME280;38443;53.164;5.802;2022-12-29T04:37:51;99646.72;;;6.83;100.00
52535;BME280;38443;53.164;5.802;2022-12-29T04:40:16;99637.00;;;6.82;100.00
52535;BME280;38443;53.164;5.802;2022-12-29T04:42:41;99655.50;;;6.85;100.00
52535;BME280;38443;53.164;5.802;2022-12-29T04:45:07;99652.88;;;6.83;100.00
52535;BME280;38443;53.164;5.802;2022-12-29T04:47:33;99664.31;;;6.87;100.00
52535;BME280;38443;53.164;5.802;2022-12-29T04:49:58;99656.13;;;6.93;100.00
52535;BME280;38443;53.164;5.802;2022-12-29T04:52:23;99649.63;;;7.02;100.00
52535;BME280;38443;53.164;5.802;2022-12-29T04:54:48;99668.19;;;7.03;100.00
52535;BME280;38443;53.164;5.802;2022-12-29T04:57:14;99664.50;;;7.07;100.00
52535;BME280;38443;53.164;5.802;2022-12-29T04:59:39;99662.81;;;7.05;100.00
52535;BME280;38443;53.164;5.802;2022-12-29T05:02:04;99661.84;;;7.07;100.00
52535;BME280;38443;53.164;5.802;2022-12-29T05:04:30;99660.97;;;7.07;100.00
52535;BME280;38443;53.164;5.802;2022-12-29T05:06:55;99655.44;;;7.13;100.00
52535;BME280;38443;53.164;5.802;2022-12-29T05:09:20;99664.34;;;7.12;100.00
52535;BME280;38443;53.164;5.802;2022-12-29T05:11:46;99663.34;;;7.16;100.00
52535;BME280;38443;53.164;5.802;2022-12-29T05:14:11;99670.50;;;7.14;100.00
52535;BME280;38443;53.164;5.802;2022-12-29T05:16:36;99659.69;;;7.18;100.00
52535;BME280;38443;53.164;5.802;2022-12-29T05:19:01;99670.50;;;7.14;100.00
52535;BME280;38443;53.164;5.802;2022-12-29T05:21:27;99671.34;;;7.14;100.00
52535;BME280;38443;53.164;5.802;2022-12-29T05:23:52;99660.09;;;7.06;100.00
52535;BME280;38443;53.164;5.802;2022-12-29T05:26:17;99659.13;;;7.09;100.00
52535;BME280;38443;53.164;5.802;2022-12-29T05:28:42;99669.00;;;7.05;100.00
52535;BME280;38443;53.164;5.802;2022-12-29T05:31:08;99659.25;;;7.06;100.00
52535;BME280;38443;53.164;5.802;2022-12-29T05:33:33;99655.78;;;7.04;100.00
52535;BME280;38443;53.164;5.802;2022-12-29T05:36:08;99669.13;;;7.02;100.00
52535;BME280;38443;53.164;5.802;2022-12-29T05:38:35;99669.94;;;7.04;100.00
52535;BME280;38443;53.164;5.802;2022-12-29T05:41:00;99677.91;;;7.04;100.00
52535;BME280;38443;53.164;5.802;2022-12-29T05:43:26;99669.00;;;7.05;100.00
52535;BME280;38443;53.164;5.802;2022-12-29T05:45:51;99671.41;;;7.13;100.00
52535;BME280;38443;53.164;5.802;2022-12-29T05:48:17;99674.03;;;7.14;100.00
52535;BME280;38443;53.164;5.802;2022-12-29T05:50:42;99673.00;;;7.18;100.00
52535;BME280;38443;53.164;5.802;2022-12-29T05:53:11;99672.06;;;7.19;100.00
52535;BME280;38443;53.164;5.802;2022-12-29T05:55:36;99663.25;;;7.17;100.00
52535;BME280;38443;53.164;5.802;2022-12-29T05:58:02;99673.81;;;7.21;100.00
52535;BME280;38443;53.164;5.802;2022-12-29T06:00:27;99668.06;;;7.08;100.00
52535;BME280;38443;53.164;5.802;2022-12-29T06:02:52;99678.63;;;7.09;100.00
52535;BME280;38443;53.164;5.802;2022-12-29T06:05:18;99668.25;;;7.02;100.00
52535;BME280;38443;53.164;5.802;2022-12-29T06:07:43;99678.00;;;7.01;100.00
52535;BME280;38443;53.164;5.802;2022-12-29T06:10:09;99691.34;;;6.99;100.00
52535;BME280;38443;53.164;5.802;2022-12-29T06:12:35;99694.13;;;6.96;100.00
52535;BME280;38443;53.164;5.802;2022-12-29T06:15:00;99696.00;;;6.93;100.00
52535;BME280;38443;53.164;5.802;2022-12-29T06:17:25;99684.69;;;6.88;100.00
52535;BME280;38443;53.164;5.802;2022-12-29T06:19:51;99684.34;;;6.97;100.00
52535;BME280;38443;53.164;5.802;2022-12-29T06:22:16;99695.16;;;6.92;100.00
52535;BME280;38443;53.164;5.802;2022-12-29T06:24:42;99687.88;;;6.97;100.00
52535;BME280;38443;53.164;5.802;2022-12-29T06:27:07;99684.50;;;6.92;100.00
52535;BME280;38443;53.164;5.802;2022-12-29T06:29:32;99680.91;;;6.93;100.00
52535;BME280;38443;53.164;5.802;2022-12-29T06:31:58;99697.91;;;6.89;100.00
52535;BME280;38443;53.164;5.802;2022-12-29T06:34:26;99680.22;;;6.88;100.00
52535;BME280;38443;53.164;5.802;2022-12-29T06:36:51;99690.03;;;6.86;100.00
52535;BME280;38443;53.164;5.802;2022-12-29T06:39:17;99683.03;;;6.84;100.00
52535;BME280;38443;53.164;5.802;2022-12-29T06:41:42;99683.03;;;6.84;100.00
52535;BME280;38443;53.164;5.802;2022-12-29T06:44:07;99691.16;;;6.79;100.00
52535;BME280;38443;53.164;5.802;2022-12-29T06:46:33;99682.22;;;6.82;100.00
52535;BME280;38443;53.164;5.802;2022-12-29T06:48:58;99669.81;;;6.81;100.00
52535;BME280;38443;53.164;5.802;2022-12-29T06:51:23;99700.69;;;6.86;100.00
52535;BME280;38443;53.164;5.802;2022-12-29T06:53:49;99685.56;;;6.87;100.00
52535;BME280;38443;53.164;5.802;2022-12-29T06:56:14;99699.50;;;6.95;100.00
52535;BME280;38443;53.164;5.802;2022-12-29T06:58:39;99679.06;;;6.95;100.00
52535;BME280;38443;53.164;5.802;2022-12-29T07:01:05;99690.50;;;6.99;100.00
52535;BME280;38443;53.164;5.802;2022-12-29T07:03:30;99672.91;;;6.95;100.00
52535;BME280;38443;53.164;5.802;2022-12-29T07:05:55;99681.66;;;6.98;100.00
52535;BME280;38443;53.164;5.802;2022-12-29T07:08:23;99663.84;;;7.01;100.00
52535;BME280;38443;53.164;5.802;2022-12-29T07:10:48;99677.09;;;7.02;100.00
52535;BME280;38443;53.164;5.802;2022-12-29T07:13:13;99688.44;;;7.07;100.00
52535;BME280;38443;53.164;5.802;2022-12-29T07:15:39;99683.19;;;7.06;100.00
52535;BME280;38443;53.164;5.802;2022-12-29T07:18:04;99690.97;;;7.12;100.00
52535;BME280;38443;53.164;5.802;2022-12-29T07:20:30;99697.19;;;7.11;100.00
52535;BME280;38443;53.164;5.802;2022-12-29T07:22:55;99697.03;;;7.15;100.00
52535;BME280;38443;53.164;5.802;2022-12-29T07:25:21;99702.44;;;7.14;100.00
52535;BME280;38443;53.164;5.802;2022-12-29T07:27:46;99700.59;;;7.16;100.00
52535;BME280;38443;53.164;5.802;2022-12-29T07:30:12;99693.50;;;7.15;100.00
52535;BME280;38443;53.164;5.802;2022-12-29T07:32:37;99698.63;;;7.21;100.00
52535;BME280;38443;53.164;5.802;2022-12-29T07:35:03;99702.25;;;7.18;100.00
52535;BME280;38443;53.164;5.802;2022-12-29T07:37:28;99715.53;;;7.20;100.00
52535;BME280;38443;53.164;5.802;2022-12-29T07:39:54;99704.09;;;7.16;100.00
52535;BME280;38443;53.164;5.802;2022-12-29T07:42:19;99710.13;;;7.22;100.00
52535;BME280;38443;53.164;5.802;2022-12-29T07:44:44;99696.09;;;7.18;100.00
52535;BME280;38443;53.164;5.802;2022-12-29T07:47:09;99698.56;;;7.23;100.00
52535;BME280;38443;53.164;5.802;2022-12-29T07:49:35;99705.75;;;7.21;100.00
52535;BME280;38443;53.164;5.802;2022-12-29T07:52:00;99698.56;;;7.23;100.00
52535;BME280;38443;53.164;5.802;2022-12-29T07:54:25;99712.75;;;7.23;100.00
52535;BME280;38443;53.164;5.802;2022-12-29T07:56:51;99707.28;;;7.28;100.00
52535;BME280;38443;53.164;5.802;2022-12-29T07:59:16;99710.97;;;7.24;100.00
52535;BME280;38443;53.164;5.802;2022-12-29T08:01:42;99717.03;;;7.27;100.00
52535;BME280;38443;53.164;5.802;2022-12-29T08:04:07;99696.78;;;7.23;100.00
52535;BME280;38443;53.164;5.802;2022-12-29T08:06:33;99711.72;;;7.27;100.00
52535;BME280;38443;53.164;5.802;2022-12-29T08:08:58;99715.44;;;7.22;100.00
52535;BME280;38443;53.164;5.802;2022-12-29T08:11:25;99711.84;;;7.24;100.00
52535;BME280;38443;53.164;5.802;2022-12-29T08:13:50;99715.56;;;7.18;100.00
52535;BME280;38443;53.164;5.802;2022-12-29T08:16:15;99723.31;;;7.26;100.00
52535;BME280;38443;53.164;5.802;2022-12-29T08:18:41;99723.38;;;7.23;100.00
52535;BME280;38443;53.164;5.802;2022-12-29T08:21:06;99720.63;;;7.26;100.00
52535;BME280;38443;53.164;5.802;2022-12-29T08:23:32;99710.97;;;7.24;100.00
52535;BME280;38443;53.164;5.802;2022-12-29T08:26:04;99717.94;;;7.28;100.00
52535;BME280;38443;53.164;5.802;2022-12-29T08:28:30;99729.44;;;7.28;100.00
52535;BME280;38443;53.164;5.802;2022-12-29T08:31:00;99729.41;;;7.30;100.00
52535;BME280;38443;53.164;5.802;2022-12-29T08:33:27;99728.41;;;7.32;100.00
52535;BME280;38443;53.164;5.802;2022-12-29T08:35:59;99732.81;;;7.33;100.00
52535;BME280;38443;53.164;5.802;2022-12-29T08:38:24;99711.41;;;7.36;100.00
52535;BME280;38443;53.164;5.802;2022-12-29T08:40:51;99727.47;;;7.33;100.00
52535;BME280;38443;53.164;5.802;2022-12-29T08:43:16;99722.00;;;7.38;100.00
52535;BME280;38443;53.164;5.802;2022-12-29T08:45:41;99730.09;;;7.35;100.00
52535;BME280;38443;53.164;5.802;2022-12-29T08:48:07;99726.31;;;7.42;100.00
52535;BME280;38443;53.164;5.802;2022-12-29T08:50:32;99736.19;;;7.38;100.00
52535;BME280;38443;53.164;5.802;2022-12-29T08:52:57;99732.59;;;7.39;100.00
52535;BME280;38443;53.164;5.802;2022-12-29T08:55:23;99709.81;;;7.31;100.00
52535;BME280;38443;53.164;5.802;2022-12-29T08:57:48;99740.88;;;7.32;100.00
52535;BME280;38443;53.164;5.802;2022-12-29T09:00:13;99751.75;;;7.24;100.00
52535;BME280;38443;53.164;5.802;2022-12-29T09:02:40;99725.09;;;7.26;100.00
52535;BME280;38443;53.164;5.802;2022-12-29T09:05:05;99749.19;;;7.21;100.00
52535;BME280;38443;53.164;5.802;2022-12-29T09:07:31;99739.31;;;7.25;100.00
52535;BME280;38443;53.164;5.802;2022-12-29T09:09:56;99733.91;;;7.28;100.00
52535;BME280;38443;53.164;5.802;2022-12-29T09:12:21;99731.91;;;7.34;100.00
52535;BME280;38443;53.164;5.802;2022-12-29T09:14:47;99751.44;;;7.33;100.00
52535;BME280;38443;53.164;5.802;2022-12-29T09:17:12;99743.41;;;7.35;100.00
52535;BME280;38443;53.164;5.802;2022-12-29T09:19:56;99735.41;;;7.35;100.00
52535;BME280;38443;53.164;5.802;2022-12-29T09:22:21;99744.59;;;7.26;100.00
52535;BME280;38443;53.164;5.802;2022-12-29T09:24:47;99750.72;;;7.28;100.00
52535;BME280;38443;53.164;5.802;2022-12-29T09:27:12;99765.06;;;7.24;100.00
52535;BME280;38443;53.164;5.802;2022-12-29T09:29:37;99768.63;;;7.23;100.00
52535;BME280;38443;53.164;5.802;2022-12-29T09:32:03;99764.50;;;7.14;100.00
52535;BME280;38443;53.164;5.802;2022-12-29T09:34:28;99764.66;;;7.10;100.00
52535;BME280;38443;53.164;5.802;2022-12-29T09:36:54;99772.34;;;6.91;100.00
52535;BME280;38443;53.164;5.802;2022-12-29T09:39:21;99771.72;;;6.83;100.00
52535;BME280;38443;53.164;5.802;2022-12-29T09:44:44;99798.72;;;6.69;100.00
52535;BME280;38443;53.164;5.802;2022-12-29T09:47:14;99782.78;;;6.69;100.00
52535;BME280;38443;53.164;5.802;2022-12-29T09:49:47;99772.13;;;6.69;100.00
52535;BME280;38443;53.164;5.802;2022-12-29T09:52:19;99794.41;;;6.65;100.00
52535;BME280;38443;53.164;5.802;2022-12-29T09:54:53;99802.41;;;6.65;100.00
52535;BME280;38443;53.164;5.802;2022-12-29T09:57:23;99793.41;;;6.69;100.00
52535;BME280;38443;53.164;5.802;2022-12-29T09:59:54;99833.97;;;6.75;100.00
52535;BME280;38443;53.164;5.802;2022-12-29T10:04:59;99849.63;;;6.86;100.00
52535;BME280;38443;53.164;5.802;2022-12-29T10:15:40;99869.84;;;6.92;100.00
52535;BME280;38443;53.164;5.802;2022-12-29T10:18:28;99864.44;;;6.95;100.00
52535;BME280;38443;53.164;5.802;2022-12-29T10:21:04;99870.53;;;6.98;100.00
52535;BME280;38443;53.164;5.802;2022-12-29T10:26:36;99888.06;;;7.06;100.00
52535;BME280;38443;53.164;5.802;2022-12-29T10:29:08;99893.28;;;7.09;100.00
52535;BME280;38443;53.164;5.802;2022-12-29T10:31:48;99888.75;;;7.12;100.00
52535;BME280;38443;53.164;5.802;2022-12-29T10:34:24;99901.94;;;7.15;100.00
52535;BME280;38443;53.164;5.802;2022-12-29T10:37:30;99903.69;;;7.16;100.00
52535;BME280;38443;53.164;5.802;2022-12-29T10:40:00;99906.25;;;7.19;100.00
52535;BME280;38443;53.164;5.802;2022-12-29T10:44:53;99909.84;;;7.18;100.00
52535;BME280;38443;53.164;5.802;2022-12-29T10:47:25;99913.28;;;7.22;100.00
52535;BME280;38443;53.164;5.802;2022-12-29T10:49:51;99923.81;;;7.25;100.00
52535;BME280;38443;53.164;5.802;2022-12-29T10:52:17;99930.97;;;7.23;100.00
52535;BME280;38443;53.164;5.802;2022-12-29T10:57:32;99935.22;;;7.30;100.00
52535;BME280;38443;53.164;5.802;2022-12-29T11:00:00;99938.69;;;7.32;100.00
52535;BME280;38443;53.164;5.802;2022-12-29T11:07:30;99943.00;;;7.36;100.00
52535;BME280;38443;53.164;5.802;2022-12-29T11:10:16;99949.81;;;7.45;100.00
52535;BME280;38443;53.164;5.802;2022-12-29T11:12:55;99953.22;;;7.50;100.00
52535;BME280;38443;53.164;5.802;2022-12-29T11:15:20;99948.72;;;7.52;100.00
52535;BME280;38443;53.164;5.802;2022-12-29T11:17:53;99959.38;;;7.52;100.00
52535;BME280;38443;53.164;5.802;2022-12-29T11:20:30;99971.91;;;7.49;100.00
52535;BME280;38443;53.164;5.802;2022-12-29T11:22:57;99973.66;;;7.50;100.00
52535;BME280;38443;53.164;5.802;2022-12-29T11:25:24;99984.41;;;7.47;100.00
52535;BME280;38443;53.164;5.802;2022-12-29T11:30:31;100005.88;;;7.41;100.00
52535;BME280;38443;53.164;5.802;2022-12-29T11:32:57;100010.19;;;7.45;100.00
52535;BME280;38443;53.164;5.802;2022-12-29T11:35:44;100019.00;;;7.47;100.00
52535;BME280;38443;53.164;5.802;2022-12-29T11:38:22;100026.81;;;7.53;100.00
52535;BME280;38443;53.164;5.802;2022-12-29T11:40:51;100033.00;;;7.53;100.00
52535;BME280;38443;53.164;5.802;2022-12-29T11:43:44;100038.63;;;7.44;100.00
52535;BME280;38443;53.164;5.802;2022-12-29T11:46:20;100035.25;;;7.37;100.00
52535;BME280;38443;53.164;5.802;2022-12-29T11:48:48;100038.91;;;7.33;100.00
52535;BME280;38443;53.164;5.802;2022-12-29T11:51:20;100038.28;;;7.25;100.00
52535;BME280;38443;53.164;5.802;2022-12-29T11:53:50;100045.25;;;7.29;100.00
52535;BME280;38443;53.164;5.802;2022-12-29T11:56:20;100058.53;;;7.31;100.00
52535;BME280;38443;53.164;5.802;2022-12-29T11:58:49;100048.75;;;7.31;100.00
52535;BME280;38443;53.164;5.802;2022-12-29T12:01:34;100047.91;;;7.29;100.00
52535;BME280;38443;53.164;5.802;2022-12-29T12:04:03;100056.97;;;7.24;100.00
52535;BME280;38443;53.164;5.802;2022-12-29T12:06:31;100047.97;;;7.28;100.00
52535;BME280;38443;53.164;5.802;2022-12-29T12:09:10;100055.06;;;7.27;100.00
52535;BME280;38443;53.164;5.802;2022-12-29T12:11:40;100071.44;;;7.45;100.00
52535;BME280;38443;53.164;5.802;2022-12-29T12:14:16;100069.81;;;7.70;100.00
52535;BME280;38443;53.164;5.802;2022-12-29T12:16:55;100082.16;;;7.73;100.00
52535;BME280;38443;53.164;5.802;2022-12-29T12:19:43;100085.19;;;7.61;100.00
52535;BME280;38443;53.164;5.802;2022-12-29T12:25:09;100100.88;;;7.40;100.00
52535;BME280;38443;53.164;5.802;2022-12-29T12:27:48;100096.53;;;7.36;100.00
52535;BME280;38443;53.164;5.802;2022-12-29T12:30:21;100096.59;;;7.34;100.00
52535;BME280;38443;53.164;5.802;2022-12-29T12:41:31;100119.19;;;7.51;100.00
52535;BME280;38443;53.164;5.802;2022-12-29T12:44:02;100113.28;;;7.39;100.00
52535;BME280;38443;53.164;5.802;2022-12-29T13:00:09;100123.34;;;8.21;100.00
52535;BME280;38443;53.164;5.802;2022-12-29T13:02:59;100126.69;;;7.97;100.00
52535;BME280;38443;53.164;5.802;2022-12-29T13:05:50;100131.97;;;7.69;100.00
52535;BME280;38443;53.164;5.802;2022-12-29T13:11:24;100141.56;;;7.44;100.00
52535;BME280;38443;53.164;5.802;2022-12-29T13:19:39;100159.00;;;7.23;100.00
52535;BME280;38443;53.164;5.802;2022-12-29T13:22:32;100161.91;;;7.13;100.00
52535;BME280;38443;53.164;5.802;2022-12-29T13:30:32;100172.06;;;6.97;100.00
52535;BME280;38443;53.164;5.802;2022-12-29T13:38:35;100179.84;;;7.05;100.00
52535;BME280;38443;53.164;5.802;2022-12-29T13:41:25;100181.50;;;7.11;100.00
52535;BME280;38443;53.164;5.802;2022-12-29T13:43:53;100187.53;;;7.17;100.00
52535;BME280;38443;53.164;5.802;2022-12-29T13:46:27;100191.84;;;7.22;100.00
52535;BME280;38443;53.164;5.802;2022-12-29T13:49:21;100182.09;;;7.22;100.00
52535;BME280;38443;53.164;5.802;2022-12-29T13:51:51;100183.13;;;7.16;100.00
52535;BME280;38443;53.164;5.802;2022-12-29T13:54:22;100190.28;;;7.14;100.00
52535;BME280;38443;53.164;5.802;2022-12-29T13:59:50;100192.41;;;7.00;100.00
52535;BME280;38443;53.164;5.802;2022-12-29T14:05:27;100203.38;;;6.88;100.00
52535;BME280;38443;53.164;5.802;2022-12-29T14:07:44;100199.06;;;6.82;100.00
52535;BME280;38443;53.164;5.802;2022-12-29T14:13:02;100210.94;;;6.67;100.00
52535;BME280;38443;53.164;5.802;2022-12-29T14:15:28;100206.56;;;6.65;100.00
52535;BME280;38443;53.164;5.802;2022-12-29T14:18:01;100197.03;;;6.56;100.00
52535;BME280;38443;53.164;5.802;2022-12-29T14:20:28;100208.53;;;6.56;100.00
52535;BME280;38443;53.164;5.802;2022-12-29T14:22:57;100215.78;;;6.50;100.00
52535;BME280;38443;53.164;5.802;2022-12-29T14:26:00;100211.38;;;6.47;100.00
52535;BME280;38443;53.164;5.802;2022-12-29T14:28:33;100219.38;;;6.47;100.00
52535;BME280;38443;53.164;5.802;2022-12-29T14:31:05;100215.88;;;6.45;100.00
52535;BME280;38443;53.164;5.802;2022-12-29T14:33:32;100219.44;;;6.44;100.00
52535;BME280;38443;53.164;5.802;2022-12-29T14:36:22;100221.31;;;6.39;100.00
52535;BME280;38443;53.164;5.802;2022-12-29T14:38:50;100223.97;;;6.41;100.00
52535;BME280;38443;53.164;5.802;2022-12-29T14:44:11;100229.41;;;6.34;100.00
52535;BME280;38443;53.164;5.802;2022-12-29T14:46:47;100226.88;;;6.30;100.00
52535;BME280;38443;53.164;5.802;2022-12-29T14:49:28;100225.09;;;6.29;100.00
52535;BME280;38443;53.164;5.802;2022-12-29T14:52:05;100228.69;;;6.28;100.00
52535;BME280;38443;53.164;5.802;2022-12-29T14:57:13;100227.78;;;6.27;100.00
52535;BME280;38443;53.164;5.802;2022-12-29T14:59:39;100233.94;;;6.29;100.00
52535;BME280;38443;53.164;5.802;2022-12-29T15:02:10;100230.50;;;6.26;100.00
52535;BME280;38443;53.164;5.802;2022-12-29T15:04:39;100225.97;;;6.29;100.00
52535;BME280;38443;53.164;5.802;2022-12-29T15:07:09;100229.47;;;6.31;100.00
52535;BME280;38443;53.164;5.802;2022-12-29T15:09:47;100225.06;;;6.30;100.00
52535;BME280;38443;53.164;5.802;2022-12-29T15:12:21;100226.75;;;6.34;100.00